ESNG

Details ICAO ESNG (GEV)
Name Gallivare
Region Sweden
Timezone Europe/Stockholm (UTC+1.0)
Plans Departing 2
Arriving 2
Stats Elevation 1,027 ft / 313 m (AMSL)
Location 67.132407° 20.814635°
Runways 1
Magnetic Variation 9.130° E
Sunrise 2017-12-15 09:46:17 UTC / 2017-12-15 10:46:17 Local
Sunset 2017-12-15 11:20:15 UTC / 2017-12-15 12:20:15 Local
Advertisement - Login to hide

Runways

ID Width Length Bearing (true) Bearing (mag) Surface Threshold Offset Overrun Length
12 148 ft / 45 m 5,603 ft / 1,708 m 117.96° 108.83° Asphalt 0 ft / 0 m 0 ft / 0 m
30 148 ft / 45 m 5,603 ft / 1,708 m 297.99° 288.86° Asphalt 0 ft / 0 m 0 ft / 0 m

Approach Navaids

Runway Type Ident Frequency Range Bearing (true) Bearing (mag) Slope Elevation
30 Localiser NG 108.10 MHz 18 nm / 33 km 297.94° 288.81° - 1,027 ft / 313 m (AMSL)
30 Glidescope NG 108.10 MHz 10 nm / 19 km 297.97° 288.84° 3.00° 1,027 ft / 313 m (AMSL)
30 DME NG 108.10 MHz 18 nm / 33 km - - - 1,034 ft / 315 m (AMSL)

Map

Weather


0- 5 10 15 20 25 30 35+ Temperature / ° C

Clouds and Precipitation
Forecast for 2017-12-15 00:00 UTC. Updated an hour ago

Ground ~20,000 ft ~40,000 ft Winds

METAR

ESNG 150020Z AUTO 00000KT 3300 -SN VV010 M14/M16 Q0990

TAF

Not found

Frequencies

Tower 122.10 MHz AFIS
Warning: Do not use this data for real-world aviation or navigation. No guarantee of current accuracy is given.